createdAt,value
2023-03-18T00:00:12.835Z,18.13
2023-03-18T00:02:40.469Z,24.20
2023-03-18T00:05:08.695Z,20.30
2023-03-18T00:07:36.360Z,20.57
2023-03-18T00:10:04.468Z,23.33
2023-03-18T00:12:32.536Z,23.60
2023-03-18T00:14:59.840Z,25.87
2023-03-18T00:17:26.706Z,25.63
2023-03-18T00:19:53.910Z,23.47
2023-03-18T00:22:20.640Z,23.97
2023-03-18T00:24:49.084Z,25.97
2023-03-18T00:27:15.846Z,29.63
2023-03-18T00:29:42.885Z,26.60
2023-03-18T00:32:09.986Z,27.60
2023-03-18T00:34:36.589Z,24.40
2023-03-18T00:37:03.737Z,27.03
2023-03-18T00:39:33.099Z,26.03
2023-03-18T00:42:08.190Z,22.63
2023-03-18T00:44:34.835Z,18.23
2023-03-18T00:47:01.594Z,26.43
2023-03-18T00:49:28.431Z,27.23
2023-03-18T00:51:54.997Z,27.77
2023-03-18T00:54:22.509Z,25.10
2023-03-18T00:56:49.768Z,29.23
2023-03-18T00:59:16.790Z,31.20
2023-03-18T01:01:43.403Z,33.93
2023-03-18T01:04:10.230Z,26.33
2023-03-18T01:06:38.480Z,20.77
2023-03-18T01:09:07.026Z,19.57
2023-03-18T01:11:33.789Z,20.17
2023-03-18T01:14:00.952Z,19.80
2023-03-18T01:16:29.894Z,23.50
2023-03-18T01:18:56.584Z,21.10
2023-03-18T01:21:23.778Z,24.37
2023-03-18T01:23:50.492Z,21.73
2023-03-18T01:26:17.417Z,21.03
2023-03-18T01:28:44.475Z,27.80
2023-03-18T01:31:12.638Z,29.53
2023-03-18T01:33:40.426Z,26.17
2023-03-18T01:36:08.384Z,28.30
2023-03-18T01:38:35.076Z,24.07
2023-03-18T01:41:03.263Z,19.23
2023-03-18T01:43:35.596Z,24.90
2023-03-18T01:46:42.854Z,20.90
2023-03-18T01:49:14.619Z,16.50
2023-03-18T01:51:44.398Z,18.23
2023-03-18T01:54:12.414Z,15.33
2023-03-18T01:56:40.903Z,15.67
2023-03-18T01:59:08.590Z,15.63
2023-03-18T02:02:07.268Z,15.27
2023-03-18T02:04:39.393Z,17.17
2023-03-18T02:07:08.012Z,16.33
2023-03-18T02:09:34.712Z,17.47
2023-03-18T02:12:01.993Z,19.70
2023-03-18T02:14:28.593Z,18.97
2023-03-18T02:17:10.572Z,35.33
2023-03-18T02:19:47.863Z,19.67
2023-03-18T02:22:19.104Z,24.07
2023-03-18T02:24:55.701Z,25.70
2023-03-18T02:27:27.308Z,26.97
2023-03-18T02:29:57.478Z,30.57
2023-03-18T02:32:29.145Z,26.23
2023-03-18T02:34:56.849Z,18.87
2023-03-18T02:37:23.548Z,19.93
2023-03-18T02:39:50.164Z,16.30
2023-03-18T02:42:28.356Z,15.03
2023-03-18T02:44:55.005Z,22.27
2023-03-18T02:47:22.957Z,30.60
2023-03-18T02:49:49.916Z,23.37
2023-03-18T02:52:16.848Z,21.10
2023-03-18T02:54:43.429Z,22.37
2023-03-18T02:57:10.000Z,22.33
2023-03-18T02:59:36.670Z,24.70
2023-03-18T03:02:03.944Z,20.47
2023-03-18T03:04:30.813Z,25.00
2023-03-18T03:06:58.226Z,25.43
2023-03-18T03:09:25.039Z,26.03
2023-03-18T03:11:52.258Z,27.97
2023-03-18T03:14:18.862Z,26.87
2023-03-18T03:16:45.445Z,30.93
2023-03-18T03:19:12.125Z,120.27
2023-03-18T03:21:38.765Z,74.30
2023-03-18T03:24:07.047Z,22.43
2023-03-18T03:26:35.086Z,22.23
2023-03-18T03:29:04.639Z,23.50
2023-03-18T03:31:31.818Z,21.17
2023-03-18T03:33:58.801Z,21.70
2023-03-18T03:36:25.392Z,21.17
2023-03-18T03:38:52.046Z,18.73
2023-03-18T03:41:18.670Z,14.70
2023-03-18T03:43:45.602Z,17.53
2023-03-18T03:46:12.533Z,15.97
2023-03-18T03:48:39.717Z,23.83
2023-03-18T03:51:07.136Z,24.67
2023-03-18T03:53:34.499Z,26.67
2023-03-18T03:56:01.148Z,26.93
2023-03-18T03:58:29.200Z,27.30
2023-03-18T04:00:56.052Z,20.17
2023-03-18T04:03:22.661Z,19.03
2023-03-18T04:05:49.506Z,22.27
2023-03-18T04:08:16.185Z,22.80
2023-03-18T04:10:43.377Z,27.70
2023-03-18T04:13:10.297Z,37.73
2023-03-18T04:15:37.528Z,26.07
2023-03-18T04:18:06.639Z,26.07
2023-03-18T04:20:37.685Z,25.97
2023-03-18T04:23:04.760Z,40.30
2023-03-18T04:25:31.328Z,23.03
2023-03-18T04:27:58.245Z,26.63
2023-03-18T04:30:26.539Z,28.37
2023-03-18T04:32:53.269Z,26.53
2023-03-18T04:35:21.247Z,26.83
2023-03-18T04:37:48.805Z,25.93
2023-03-18T04:40:15.546Z,24.50
2023-03-18T04:42:42.676Z,24.60
2023-03-18T04:45:09.625Z,24.40
2023-03-18T04:47:37.195Z,24.90
2023-03-18T04:50:04.694Z,25.27
2023-03-18T04:52:31.515Z,22.90
2023-03-18T04:54:58.455Z,21.67
2023-03-18T04:57:25.253Z,24.10
2023-03-18T04:59:52.187Z,23.87
2023-03-18T05:02:19.542Z,24.70
2023-03-18T05:04:46.248Z,19.87
2023-03-18T05:07:15.767Z,23.23
2023-03-18T05:09:42.589Z,20.03
2023-03-18T05:12:14.932Z,21.10
2023-03-18T05:14:45.265Z,20.47
2023-03-18T05:17:15.770Z,20.30
2023-03-18T05:19:44.682Z,19.40
2023-03-18T05:22:11.806Z,18.57
2023-03-18T05:24:39.439Z,17.80
2023-03-18T05:27:06.756Z,18.60
2023-03-18T05:29:33.443Z,19.13
2023-03-18T05:32:00.199Z,16.27
2023-03-18T05:34:27.565Z,22.83
2023-03-18T05:36:54.228Z,19.23
2023-03-18T05:39:20.847Z,20.00
2023-03-18T05:41:47.473Z,21.63
2023-03-18T05:44:14.845Z,25.13
2023-03-18T05:46:41.942Z,26.73
2023-03-18T05:49:08.990Z,24.93
2023-03-18T05:51:35.663Z,22.43
2023-03-18T05:54:04.142Z,25.57
2023-03-18T05:56:31.324Z,27.70
2023-03-18T05:58:58.695Z,25.23
2023-03-18T06:01:26.105Z,19.77
2023-03-18T06:03:53.716Z,19.93
2023-03-18T06:06:20.332Z,17.77
2023-03-18T06:08:46.990Z,18.67
2023-03-18T06:11:13.803Z,20.73
2023-03-18T06:13:40.376Z,21.47
2023-03-18T06:16:08.730Z,21.23
2023-03-18T06:18:35.379Z,22.70
2023-03-18T06:21:01.981Z,21.97
2023-03-18T06:23:28.781Z,21.50
2023-03-18T06:25:56.151Z,21.40
2023-03-18T06:28:22.728Z,19.07
2023-03-18T06:30:49.450Z,16.80
2023-03-18T06:33:16.536Z,18.50
2023-03-18T06:35:43.121Z,17.87
2023-03-18T06:38:14.354Z,19.50
2023-03-18T06:40:40.948Z,23.30
2023-03-18T06:43:07.555Z,22.33
2023-03-18T06:45:34.421Z,29.60
2023-03-18T06:48:01.840Z,30.63
2023-03-18T06:50:28.557Z,30.07
2023-03-18T06:52:55.301Z,28.57
2023-03-18T06:55:21.862Z,28.10
2023-03-18T06:57:48.480Z,26.03
2023-03-18T07:00:16.457Z,23.40
2023-03-18T07:02:43.441Z,23.47
2023-03-18T07:05:10.227Z,21.50
2023-03-18T07:07:39.893Z,16.90
2023-03-18T07:10:08.602Z,18.27
2023-03-18T07:12:35.269Z,16.07
2023-03-18T07:15:03.059Z,15.37
2023-03-18T07:17:29.682Z,13.40
2023-03-18T07:19:56.920Z,14.77
2023-03-18T07:22:24.732Z,14.33
2023-03-18T07:24:52.513Z,15.17
2023-03-18T07:27:19.131Z,16.40
2023-03-18T07:29:45.779Z,15.87
2023-03-18T07:32:12.384Z,14.13
2023-03-18T07:34:38.979Z,13.40
2023-03-18T07:37:05.591Z,15.00
2023-03-18T07:39:32.398Z,15.43
2023-03-18T07:41:59.338Z,16.90
2023-03-18T07:44:26.572Z,13.70
2023-03-18T07:46:53.287Z,14.60
2023-03-18T07:49:20.584Z,14.93
2023-03-18T07:51:47.249Z,14.80
2023-03-18T07:54:14.310Z,15.00
2023-03-18T07:56:40.907Z,13.97
2023-03-18T07:59:07.548Z,13.90
2023-03-18T08:01:34.175Z,13.43
2023-03-18T08:04:00.897Z,14.23
2023-03-18T08:06:27.605Z,12.37
2023-03-18T08:08:54.213Z,12.43
2023-03-18T08:11:21.076Z,13.20
2023-03-18T08:13:47.704Z,15.43
2023-03-18T08:16:14.383Z,12.87
2023-03-18T08:18:41.798Z,12.17
2023-03-18T08:21:09.593Z,11.23
2023-03-18T08:23:36.890Z,10.63
2023-03-18T08:26:04.263Z,9.13
2023-03-18T08:28:31.133Z,10.17
2023-03-18T08:30:59.319Z,10.07
2023-03-18T08:33:27.652Z,10.23
2023-03-18T08:35:55.923Z,11.87
2023-03-18T08:38:23.974Z,10.70
2023-03-18T08:40:51.107Z,10.13
2023-03-18T08:43:18.215Z,13.00
2023-03-18T08:45:44.900Z,13.37
2023-03-18T08:48:11.572Z,10.87
2023-03-18T08:50:38.911Z,11.90
2023-03-18T08:53:05.827Z,10.60
2023-03-18T08:55:40.021Z,9.83
2023-03-18T08:58:07.569Z,9.03
2023-03-18T09:00:36.685Z,9.10
2023-03-18T09:03:03.800Z,10.43
2023-03-18T09:05:33.602Z,7.87
2023-03-18T09:08:00.655Z,7.80
2023-03-18T09:10:27.862Z,7.53
2023-03-18T09:12:54.490Z,6.53
2023-03-18T09:15:21.244Z,7.43
2023-03-18T09:18:03.881Z,7.27
2023-03-18T09:20:35.470Z,16.13
2023-03-18T09:23:02.568Z,7.50
2023-03-18T09:25:29.128Z,7.40
2023-03-18T09:27:56.081Z,6.90
2023-03-18T09:30:22.744Z,6.57
2023-03-18T09:32:49.818Z,5.27
2023-03-18T09:35:16.641Z,4.70
2023-03-18T09:37:44.660Z,4.93
2023-03-18T09:40:33.548Z,4.90
2023-03-18T09:43:03.768Z,4.80
2023-03-18T09:45:38.938Z,4.50
2023-03-18T09:49:03.999Z,4.43
2023-03-18T09:52:23.802Z,3.77
2023-03-18T09:54:56.526Z,3.80
2023-03-18T09:57:34.353Z,3.17
2023-03-18T10:00:06.356Z,3.07
2023-03-18T10:02:35.155Z,4.10
2023-03-18T10:05:10.821Z,3.37
2023-03-18T10:07:41.570Z,3.13
2023-03-18T10:10:24.931Z,4.10
2023-03-18T10:12:59.986Z,4.27
2023-03-18T10:15:35.295Z,3.83
2023-03-18T10:18:11.255Z,4.60
2023-03-18T10:20:50.766Z,3.50
2023-03-18T10:23:23.347Z,3.80
2023-03-18T10:25:54.773Z,3.37
2023-03-18T10:28:46.110Z,2.93
2023-03-18T10:31:18.861Z,2.97
2023-03-18T10:33:59.488Z,2.93
2023-03-18T10:36:40.088Z,3.30
2023-03-18T10:39:16.416Z,3.10
2023-03-18T10:41:44.424Z,2.60
2023-03-18T10:44:23.789Z,3.20
2023-03-18T10:47:04.186Z,3.47
2023-03-18T10:49:35.248Z,2.93
2023-03-18T10:52:07.960Z,3.40
2023-03-18T10:54:39.542Z,3.80
2023-03-18T10:57:06.786Z,3.23
2023-03-18T10:59:34.611Z,2.90
2023-03-18T11:02:10.282Z,3.33
2023-03-18T11:04:42.484Z,3.70
2023-03-18T11:07:15.690Z,4.27
2023-03-18T11:09:42.579Z,6.70
2023-03-18T11:12:19.002Z,2.40
2023-03-18T11:14:50.143Z,3.20
2023-03-18T11:17:35.600Z,3.27
2023-03-18T11:20:24.736Z,4.30
2023-03-18T11:22:53.229Z,4.87
2023-03-18T11:25:26.815Z,2.90
2023-03-18T11:27:59.133Z,5.60
2023-03-18T11:30:34.410Z,3.33
2023-03-18T11:33:10.690Z,3.10
2023-03-18T11:35:45.334Z,2.77
2023-03-18T11:38:28.938Z,2.93
2023-03-18T11:41:25.688Z,3.00
2023-03-18T11:44:00.177Z,3.03
2023-03-18T11:46:34.489Z,2.93
2023-03-18T11:49:01.113Z,2.33
2023-03-18T11:52:13.065Z,2.53
2023-03-18T11:54:49.170Z,2.73
2023-03-18T11:57:27.832Z,2.77
2023-03-18T12:00:17.655Z,5.20
2023-03-18T12:03:13.291Z,2.93
2023-03-18T12:05:48.201Z,2.43
2023-03-18T12:08:30.073Z,2.70
2023-03-18T12:11:06.588Z,2.90
2023-03-18T12:14:05.928Z,3.17
2023-03-18T12:17:03.982Z,2.50
2023-03-18T12:19:42.707Z,3.03
2023-03-18T12:22:17.608Z,2.57
2023-03-18T12:25:03.412Z,3.03
2023-03-18T12:27:47.434Z,2.50
2023-03-18T12:30:41.652Z,3.17
2023-03-18T12:33:43.019Z,3.80
2023-03-18T12:36:23.634Z,4.67
2023-03-18T12:39:21.889Z,2.60
2023-03-18T12:42:01.283Z,2.70
2023-03-18T12:44:49.169Z,4.30
2023-03-18T12:47:21.305Z,2.40
2023-03-18T12:49:49.478Z,4.30
2023-03-18T12:52:34.790Z,1.93
2023-03-18T12:55:16.232Z,2.67
2023-03-18T12:57:58.236Z,2.60
2023-03-18T13:00:31.314Z,2.33
2023-03-18T13:03:00.369Z,3.70
2023-03-18T13:05:36.869Z,4.60
2023-03-18T13:08:21.802Z,3.83
2023-03-18T13:10:58.582Z,3.03
2023-03-18T13:13:26.340Z,3.00
2023-03-18T13:15:53.791Z,2.90
2023-03-18T13:18:24.479Z,2.57
2023-03-18T13:20:52.424Z,2.50
2023-03-18T13:23:49.967Z,2.40
2023-03-18T13:26:29.137Z,3.60
2023-03-18T13:29:14.067Z,2.57
2023-03-18T13:31:54.286Z,3.80
2023-03-18T13:34:31.654Z,2.90
2023-03-18T13:37:24.841Z,3.13
2023-03-18T13:40:02.638Z,2.60
2023-03-18T13:42:31.101Z,2.20
2023-03-18T13:45:02.273Z,2.70
2023-03-18T13:47:34.810Z,4.07
2023-03-18T13:50:27.149Z,3.13
2023-03-18T13:52:58.639Z,2.67
2023-03-18T13:55:34.996Z,4.43
2023-03-18T13:58:05.159Z,2.80
2023-03-18T14:00:38.706Z,3.83
2023-03-18T14:03:22.012Z,2.93
2023-03-18T14:06:08.481Z,3.60
2023-03-18T14:08:38.413Z,2.97
2023-03-18T14:11:17.380Z,4.57
2023-03-18T14:13:45.412Z,4.33
2023-03-18T14:16:14.864Z,5.23
2023-03-18T14:18:42.381Z,5.27
2023-03-18T14:21:23.942Z,4.57
2023-03-18T14:24:15.490Z,4.97
2023-03-18T14:26:42.652Z,3.40
2023-03-18T14:29:09.439Z,3.90
2023-03-18T14:31:39.237Z,4.30
2023-03-18T14:34:18.873Z,4.47
2023-03-18T14:36:54.545Z,5.10
2023-03-18T14:39:32.628Z,4.70
2023-03-18T14:42:01.701Z,4.20
2023-03-18T14:44:47.077Z,4.63
2023-03-18T14:47:53.049Z,3.27
2023-03-18T14:50:30.157Z,4.00
2023-03-18T14:53:20.857Z,3.93
2023-03-18T14:55:48.278Z,4.40
2023-03-18T14:58:20.010Z,5.03
2023-03-18T15:00:49.736Z,5.53
2023-03-18T15:03:23.148Z,5.93
2023-03-18T15:05:50.432Z,6.43
2023-03-18T15:08:19.521Z,6.37
2023-03-18T15:10:48.958Z,6.50
2023-03-18T15:13:18.281Z,6.83
2023-03-18T15:15:44.997Z,5.10
2023-03-18T15:18:19.152Z,4.33
2023-03-18T15:20:48.903Z,5.67
2023-03-18T15:23:16.137Z,7.53
2023-03-18T15:25:44.554Z,7.23
2023-03-18T15:28:18.908Z,7.53
2023-03-18T15:30:54.555Z,8.10
2023-03-18T15:33:24.372Z,12.77
2023-03-18T15:36:03.593Z,10.27
2023-03-18T15:38:31.944Z,11.37
2023-03-18T15:41:01.345Z,10.30
2023-03-18T15:43:35.582Z,12.47
2023-03-18T15:46:15.611Z,10.73
2023-03-18T15:48:44.397Z,11.03
2023-03-18T15:51:26.538Z,7.80
2023-03-18T15:53:55.706Z,6.60
2023-03-18T15:56:31.525Z,6.73
2023-03-18T15:59:13.966Z,5.87
2023-03-18T16:01:40.508Z,5.70
2023-03-18T16:04:10.327Z,6.67
2023-03-18T16:06:38.610Z,5.43
2023-03-18T16:09:25.431Z,7.10
2023-03-18T16:11:55.617Z,6.40
2023-03-18T16:14:25.225Z,8.67
2023-03-18T16:16:53.114Z,7.27
2023-03-18T16:19:28.419Z,8.07
2023-03-18T16:21:56.703Z,7.03
2023-03-18T16:24:24.259Z,6.50
2023-03-18T16:26:52.966Z,11.20
2023-03-18T16:29:31.904Z,11.67
2023-03-18T16:31:59.546Z,20.60
2023-03-18T16:34:26.174Z,15.20
2023-03-18T16:36:53.662Z,17.80
2023-03-18T16:39:27.189Z,27.53
2023-03-18T16:41:53.992Z,15.47
2023-03-18T16:44:22.245Z,13.73
2023-03-18T16:46:50.409Z,10.20
2023-03-18T16:49:27.979Z,11.47
2023-03-18T16:51:54.955Z,9.27
2023-03-18T16:54:25.800Z,11.73
2023-03-18T16:56:55.084Z,11.90
2023-03-18T16:59:22.316Z,11.97
2023-03-18T17:01:49.249Z,11.77
2023-03-18T17:04:26.328Z,11.33
2023-03-18T17:06:53.275Z,11.33
2023-03-18T17:09:20.524Z,11.60
2023-03-18T17:11:51.645Z,9.03
2023-03-18T17:14:39.859Z,9.60
2023-03-18T17:17:08.845Z,9.27
2023-03-18T17:19:35.514Z,8.57
2023-03-18T17:22:02.948Z,7.13
2023-03-18T17:24:29.650Z,6.93
2023-03-18T17:26:56.231Z,8.80
2023-03-18T17:29:25.628Z,9.97
2023-03-18T17:31:53.821Z,10.30
2023-03-18T17:34:20.801Z,10.40
2023-03-18T17:36:47.913Z,11.87
2023-03-18T17:39:14.879Z,14.90
2023-03-18T17:41:41.723Z,10.30
2023-03-18T17:44:21.209Z,8.80
2023-03-18T17:46:47.806Z,8.90
2023-03-18T17:49:14.448Z,8.83
2023-03-18T17:51:43.667Z,10.75
2023-03-18T17:54:12.130Z,10.33
2023-03-18T17:56:38.949Z,9.63
2023-03-18T17:59:15.711Z,10.37
2023-03-18T18:01:42.816Z,10.50
2023-03-18T18:04:15.085Z,11.17
2023-03-18T18:06:42.208Z,14.03
2023-03-18T18:09:12.763Z,12.33
2023-03-18T18:11:44.453Z,7.50
2023-03-18T18:14:19.444Z,10.40
2023-03-18T18:16:47.775Z,11.87
2023-03-18T18:19:14.987Z,11.00
2023-03-18T18:21:43.039Z,8.37
2023-03-18T18:24:33.735Z,6.30
2023-03-18T18:27:00.446Z,5.97
2023-03-18T18:29:32.183Z,6.40
2023-03-18T18:31:59.846Z,5.70
2023-03-18T18:34:26.628Z,6.63
2023-03-18T18:36:53.244Z,8.47
2023-03-18T18:39:21.045Z,8.90
2023-03-18T18:41:47.906Z,8.30
2023-03-18T18:44:14.743Z,8.30
2023-03-18T18:46:41.526Z,7.43
2023-03-18T18:49:18.531Z,9.30
2023-03-18T18:51:45.576Z,7.60
2023-03-18T18:54:12.316Z,7.37
2023-03-18T18:56:38.934Z,8.63
2023-03-18T18:59:15.530Z,8.80
2023-03-18T19:01:42.124Z,7.30
2023-03-18T19:04:14.762Z,9.00
2023-03-18T19:06:41.829Z,9.17
2023-03-18T19:09:23.829Z,11.87
2023-03-18T19:11:51.678Z,9.63
2023-03-18T19:14:28.977Z,6.10
2023-03-18T19:16:59.137Z,7.23
2023-03-18T19:19:28.260Z,6.93
2023-03-18T19:21:54.934Z,11.23
2023-03-18T19:24:33.073Z,12.57
2023-03-18T19:27:02.753Z,12.03
2023-03-18T19:29:30.579Z,11.87
2023-03-18T19:31:57.256Z,10.47
2023-03-18T19:34:24.006Z,10.90
2023-03-18T19:36:55.412Z,35.50
2023-03-18T19:39:22.843Z,47.13
2023-03-18T19:41:49.725Z,22.77
2023-03-18T19:44:25.122Z,18.07
2023-03-18T19:46:53.497Z,20.27
2023-03-18T19:49:21.685Z,20.53
2023-03-18T19:51:49.779Z,21.50
2023-03-18T19:54:31.539Z,22.70
2023-03-18T19:57:03.665Z,20.27
2023-03-18T19:59:37.996Z,20.43
2023-03-18T20:02:17.569Z,15.47
2023-03-18T20:04:44.167Z,13.10
2023-03-18T20:07:10.725Z,34.60
2023-03-18T20:09:37.330Z,16.27
2023-03-18T20:12:05.919Z,16.93
2023-03-18T20:14:38.149Z,13.10
2023-03-18T20:17:30.584Z,10.13
2023-03-18T20:19:57.814Z,9.57
2023-03-18T20:22:28.537Z,10.97
2023-03-18T20:24:55.530Z,8.57
2023-03-18T20:27:22.422Z,13.60
2023-03-18T20:29:49.296Z,10.93
2023-03-18T20:32:15.984Z,15.37
2023-03-18T20:34:43.994Z,13.00
2023-03-18T20:37:20.984Z,10.07
2023-03-18T20:39:49.103Z,9.20
2023-03-18T20:42:17.114Z,10.07
2023-03-18T20:44:44.904Z,10.57
2023-03-18T20:47:13.401Z,10.57
2023-03-18T20:49:41.343Z,10.83
2023-03-18T20:52:34.226Z,10.03
2023-03-18T20:55:01.331Z,11.47
2023-03-18T20:57:28.145Z,12.20
2023-03-18T20:59:54.737Z,10.60
2023-03-18T21:02:30.625Z,12.33
2023-03-18T21:04:58.289Z,10.13
2023-03-18T21:07:25.254Z,7.30
2023-03-18T21:09:52.070Z,7.53
2023-03-18T21:12:19.550Z,6.90
2023-03-18T21:14:47.150Z,5.97
2023-03-18T21:17:20.987Z,6.53
2023-03-18T21:19:48.426Z,6.73
2023-03-18T21:22:23.679Z,9.23
2023-03-18T21:24:50.347Z,8.97
2023-03-18T21:27:27.932Z,8.37
2023-03-18T21:29:55.576Z,7.87
2023-03-18T21:32:27.158Z,8.03
2023-03-18T21:34:55.882Z,5.63
2023-03-18T21:37:24.498Z,6.63
2023-03-18T21:39:51.574Z,6.73
2023-03-18T21:42:22.436Z,6.30
2023-03-18T21:44:49.501Z,5.73
2023-03-18T21:47:18.075Z,7.13
2023-03-18T21:49:45.724Z,8.57
2023-03-18T21:52:18.639Z,8.40
2023-03-18T21:54:46.325Z,13.90
2023-03-18T21:57:18.234Z,20.75
2023-03-18T21:59:45.914Z,10.63
2023-03-18T22:02:33.308Z,18.97
2023-03-18T22:05:02.329Z,18.63
2023-03-18T22:07:30.924Z,12.77
2023-03-18T22:09:58.027Z,13.13
2023-03-18T22:12:27.272Z,9.13
2023-03-18T22:14:54.493Z,8.87
2023-03-18T22:17:27.288Z,7.10
2023-03-18T22:19:54.890Z,7.37
2023-03-18T22:22:24.435Z,8.30
2023-03-18T22:24:51.874Z,8.07
2023-03-18T22:27:29.090Z,23.53
2023-03-18T22:29:58.191Z,7.95
2023-03-18T22:32:43.644Z,9.27
2023-03-18T22:35:21.640Z,8.07
2023-03-18T22:37:49.203Z,21.10
2023-03-18T22:40:22.895Z,7.97
2023-03-18T22:42:54.317Z,7.13
2023-03-18T22:45:33.996Z,10.70
2023-03-18T22:48:04.341Z,11.37
2023-03-18T22:50:32.715Z,14.90
2023-03-18T22:53:04.122Z,6.40
2023-03-18T22:55:37.228Z,6.40
2023-03-18T22:58:03.841Z,11.10
2023-03-18T23:00:36.347Z,6.03
2023-03-18T23:03:03.059Z,8.10
2023-03-18T23:05:29.719Z,11.07
2023-03-18T23:07:56.331Z,8.77
2023-03-18T23:10:23.500Z,6.73
2023-03-18T23:12:50.206Z,6.43
2023-03-18T23:15:21.669Z,6.00
2023-03-18T23:17:49.368Z,7.30
2023-03-18T23:20:17.569Z,5.67
2023-03-18T23:22:45.645Z,6.73
2023-03-18T23:25:17.799Z,9.10
2023-03-18T23:27:44.901Z,5.93
2023-03-18T23:30:13.072Z,6.07
2023-03-18T23:32:40.651Z,8.43
2023-03-18T23:35:08.692Z,7.37
2023-03-18T23:37:35.375Z,6.40
2023-03-18T23:40:02.222Z,10.40
2023-03-18T23:42:28.824Z,7.93
2023-03-18T23:44:55.577Z,7.83
2023-03-18T23:47:22.197Z,8.40
2023-03-18T23:49:48.758Z,7.40
2023-03-18T23:52:16.481Z,8.10
2023-03-18T23:54:43.132Z,7.50
2023-03-18T23:57:10.927Z,6.83
2023-03-18T23:59:38.017Z,8.50
